sensor_id;sensor_type;location;lat;lon;timestamp;P1;durP1;ratioP1;P2;durP2;ratioP2
4377;SDS011;2203;53.686;9.994;2023-03-03T00:00:40;41.27;;;16.70;;
4377;SDS011;2203;53.686;9.994;2023-03-03T00:03:06;52.47;;;17.43;;
4377;SDS011;2203;53.686;9.994;2023-03-03T00:05:33;64.40;;;17.30;;
4377;SDS011;2203;53.686;9.994;2023-03-03T00:07:59;92.70;;;17.93;;
4377;SDS011;2203;53.686;9.994;2023-03-03T00:10:25;95.03;;;18.90;;
4377;SDS011;2203;53.686;9.994;2023-03-03T00:12:50;108.23;;;16.67;;
4377;SDS011;2203;53.686;9.994;2023-03-03T00:15:16;67.47;;;17.00;;
4377;SDS011;2203;53.686;9.994;2023-03-03T00:17:43;51.43;;;16.97;;
4377;SDS011;2203;53.686;9.994;2023-03-03T00:22:57;151.10;;;18.93;;
4377;SDS011;2203;53.686;9.994;2023-03-03T00:25:33;47.63;;;16.93;;
4377;SDS011;2203;53.686;9.994;2023-03-03T00:28:00;43.17;;;17.77;;
4377;SDS011;2203;53.686;9.994;2023-03-03T00:30:46;76.90;;;16.77;;
4377;SDS011;2203;53.686;9.994;2023-03-03T00:33:14;96.13;;;17.50;;
4377;SDS011;2203;53.686;9.994;2023-03-03T00:35:52;123.80;;;17.10;;
4377;SDS011;2203;53.686;9.994;2023-03-03T00:38:17;107.43;;;17.37;;
4377;SDS011;2203;53.686;9.994;2023-03-03T00:40:43;107.63;;;17.70;;
4377;SDS011;2203;53.686;9.994;2023-03-03T00:43:19;82.63;;;16.83;;
4377;SDS011;2203;53.686;9.994;2023-03-03T00:45:50;96.37;;;16.03;;
4377;SDS011;2203;53.686;9.994;2023-03-03T00:50:45;177.27;;;17.10;;
4377;SDS011;2203;53.686;9.994;2023-03-03T00:53:11;71.43;;;18.63;;
4377;SDS011;2203;53.686;9.994;2023-03-03T00:55:38;138.03;;;19.30;;
4377;SDS011;2203;53.686;9.994;2023-03-03T00:58:04;130.77;;;18.20;;
4377;SDS011;2203;53.686;9.994;2023-03-03T01:00:30;62.47;;;18.07;;
4377;SDS011;2203;53.686;9.994;2023-03-03T01:02:56;122.07;;;18.37;;
4377;SDS011;2203;53.686;9.994;2023-03-03T01:05:22;72.77;;;18.23;;
4377;SDS011;2203;53.686;9.994;2023-03-03T01:07:47;61.33;;;18.07;;
4377;SDS011;2203;53.686;9.994;2023-03-03T01:10:12;154.77;;;17.30;;
4377;SDS011;2203;53.686;9.994;2023-03-03T01:12:38;61.23;;;16.30;;
4377;SDS011;2203;53.686;9.994;2023-03-03T01:15:07;97.50;;;16.27;;
4377;SDS011;2203;53.686;9.994;2023-03-03T01:17:34;46.50;;;15.33;;
4377;SDS011;2203;53.686;9.994;2023-03-03T01:20:00;74.40;;;15.53;;
4377;SDS011;2203;53.686;9.994;2023-03-03T01:22:26;97.97;;;16.27;;
4377;SDS011;2203;53.686;9.994;2023-03-03T01:24:51;74.83;;;15.07;;
4377;SDS011;2203;53.686;9.994;2023-03-03T01:27:16;102.17;;;15.87;;
4377;SDS011;2203;53.686;9.994;2023-03-03T01:29:42;76.60;;;15.57;;
4377;SDS011;2203;53.686;9.994;2023-03-03T01:32:07;40.83;;;14.63;;
4377;SDS011;2203;53.686;9.994;2023-03-03T01:34:33;77.50;;;15.53;;
4377;SDS011;2203;53.686;9.994;2023-03-03T01:36:58;32.67;;;14.50;;
4377;SDS011;2203;53.686;9.994;2023-03-03T01:39:25;37.43;;;14.47;;
4377;SDS011;2203;53.686;9.994;2023-03-03T01:41:50;40.73;;;16.37;;
4377;SDS011;2203;53.686;9.994;2023-03-03T01:44:16;61.87;;;15.67;;
4377;SDS011;2203;53.686;9.994;2023-03-03T01:46:44;56.37;;;13.47;;
4377;SDS011;2203;53.686;9.994;2023-03-03T01:49:14;68.53;;;14.20;;
4377;SDS011;2203;53.686;9.994;2023-03-03T01:51:51;43.70;;;13.63;;
4377;SDS011;2203;53.686;9.994;2023-03-03T01:54:21;46.57;;;14.27;;
4377;SDS011;2203;53.686;9.994;2023-03-03T01:56:49;39.13;;;12.93;;
4377;SDS011;2203;53.686;9.994;2023-03-03T01:59:20;51.50;;;13.47;;
4377;SDS011;2203;53.686;9.994;2023-03-03T02:01:48;27.80;;;13.87;;
4377;SDS011;2203;53.686;9.994;2023-03-03T02:04:14;45.47;;;13.47;;
4377;SDS011;2203;53.686;9.994;2023-03-03T02:06:40;55.63;;;13.47;;
4377;SDS011;2203;53.686;9.994;2023-03-03T02:11:50;31.57;;;13.97;;
4377;SDS011;2203;53.686;9.994;2023-03-03T02:14:17;39.23;;;14.33;;
4377;SDS011;2203;53.686;9.994;2023-03-03T02:16:42;33.50;;;12.40;;
4377;SDS011;2203;53.686;9.994;2023-03-03T02:19:12;29.80;;;13.43;;
4377;SDS011;2203;53.686;9.994;2023-03-03T02:21:43;32.47;;;13.53;;
4377;SDS011;2203;53.686;9.994;2023-03-03T02:26:42;165.47;;;15.80;;
4377;SDS011;2203;53.686;9.994;2023-03-03T02:29:09;38.40;;;13.17;;
4377;SDS011;2203;53.686;9.994;2023-03-03T02:31:35;120.03;;;15.47;;
4377;SDS011;2203;53.686;9.994;2023-03-03T02:34:02;49.83;;;13.17;;
4377;SDS011;2203;53.686;9.994;2023-03-03T02:36:29;30.50;;;13.27;;
4377;SDS011;2203;53.686;9.994;2023-03-03T02:44:08;33.83;;;14.47;;
4377;SDS011;2203;53.686;9.994;2023-03-03T02:46:35;33.37;;;14.07;;
4377;SDS011;2203;53.686;9.994;2023-03-03T02:49:02;48.83;;;14.07;;
4377;SDS011;2203;53.686;9.994;2023-03-03T02:51:29;30.27;;;13.63;;
4377;SDS011;2203;53.686;9.994;2023-03-03T02:53:54;53.73;;;13.03;;
4377;SDS011;2203;53.686;9.994;2023-03-03T02:56:20;46.10;;;14.20;;
4377;SDS011;2203;53.686;9.994;2023-03-03T02:58:46;33.67;;;14.00;;
4377;SDS011;2203;53.686;9.994;2023-03-03T03:01:11;34.00;;;12.27;;
4377;SDS011;2203;53.686;9.994;2023-03-03T03:03:36;49.33;;;14.50;;
4377;SDS011;2203;53.686;9.994;2023-03-03T03:06:02;56.90;;;13.07;;
4377;SDS011;2203;53.686;9.994;2023-03-03T03:08:27;54.37;;;12.90;;
4377;SDS011;2203;53.686;9.994;2023-03-03T03:10:53;59.87;;;12.50;;
4377;SDS011;2203;53.686;9.994;2023-03-03T03:13:20;36.37;;;12.83;;
4377;SDS011;2203;53.686;9.994;2023-03-03T03:15:46;35.87;;;13.00;;
4377;SDS011;2203;53.686;9.994;2023-03-03T03:18:12;46.93;;;14.33;;
4377;SDS011;2203;53.686;9.994;2023-03-03T03:20:38;23.70;;;12.70;;
4377;SDS011;2203;53.686;9.994;2023-03-03T03:23:07;27.70;;;13.20;;
4377;SDS011;2203;53.686;9.994;2023-03-03T03:25:32;25.80;;;13.10;;
4377;SDS011;2203;53.686;9.994;2023-03-03T03:27:58;36.17;;;12.67;;
4377;SDS011;2203;53.686;9.994;2023-03-03T03:30:23;29.20;;;12.07;;
4377;SDS011;2203;53.686;9.994;2023-03-03T03:32:49;41.30;;;12.50;;
4377;SDS011;2203;53.686;9.994;2023-03-03T03:35:14;52.20;;;12.70;;
4377;SDS011;2203;53.686;9.994;2023-03-03T03:37:41;50.13;;;13.53;;
4377;SDS011;2203;53.686;9.994;2023-03-03T03:40:07;52.47;;;13.43;;
4377;SDS011;2203;53.686;9.994;2023-03-03T03:42:33;22.90;;;12.50;;
4377;SDS011;2203;53.686;9.994;2023-03-03T03:44:58;149.93;;;13.13;;
4377;SDS011;2203;53.686;9.994;2023-03-03T03:47:24;29.80;;;12.30;;
4377;SDS011;2203;53.686;9.994;2023-03-03T03:49:49;58.10;;;13.10;;
4377;SDS011;2203;53.686;9.994;2023-03-03T03:52:14;97.70;;;13.40;;
4377;SDS011;2203;53.686;9.994;2023-03-03T03:54:40;25.40;;;12.30;;
4377;SDS011;2203;53.686;9.994;2023-03-03T03:57:06;26.47;;;12.30;;
4377;SDS011;2203;53.686;9.994;2023-03-03T03:59:31;61.23;;;13.80;;
4377;SDS011;2203;53.686;9.994;2023-03-03T04:01:56;39.17;;;12.77;;
4377;SDS011;2203;53.686;9.994;2023-03-03T04:04:22;33.20;;;12.40;;
4377;SDS011;2203;53.686;9.994;2023-03-03T04:06:47;41.47;;;13.53;;
4377;SDS011;2203;53.686;9.994;2023-03-03T04:09:13;19.87;;;11.20;;
4377;SDS011;2203;53.686;9.994;2023-03-03T04:11:39;21.23;;;12.07;;
4377;SDS011;2203;53.686;9.994;2023-03-03T04:14:05;27.27;;;12.77;;
4377;SDS011;2203;53.686;9.994;2023-03-03T04:16:30;24.20;;;10.90;;
4377;SDS011;2203;53.686;9.994;2023-03-03T04:18:56;96.33;;;12.33;;
4377;SDS011;2203;53.686;9.994;2023-03-03T04:21:21;43.90;;;13.03;;
4377;SDS011;2203;53.686;9.994;2023-03-03T04:23:47;24.57;;;13.40;;
4377;SDS011;2203;53.686;9.994;2023-03-03T04:26:12;34.90;;;12.50;;
4377;SDS011;2203;53.686;9.994;2023-03-03T04:28:37;69.67;;;14.03;;
4377;SDS011;2203;53.686;9.994;2023-03-03T04:31:03;23.80;;;13.73;;
4377;SDS011;2203;53.686;9.994;2023-03-03T04:33:29;28.63;;;13.30;;
4377;SDS011;2203;53.686;9.994;2023-03-03T04:35:54;35.27;;;13.23;;
4377;SDS011;2203;53.686;9.994;2023-03-03T04:38:20;33.17;;;12.00;;
4377;SDS011;2203;53.686;9.994;2023-03-03T04:40:45;24.20;;;11.67;;
4377;SDS011;2203;53.686;9.994;2023-03-03T04:43:11;30.70;;;11.87;;
4377;SDS011;2203;53.686;9.994;2023-03-03T04:45:36;35.47;;;15.30;;
4377;SDS011;2203;53.686;9.994;2023-03-03T04:48:02;23.93;;;12.57;;
4377;SDS011;2203;53.686;9.994;2023-03-03T04:50:27;67.37;;;14.50;;
4377;SDS011;2203;53.686;9.994;2023-03-03T04:52:53;34.90;;;12.70;;
4377;SDS011;2203;53.686;9.994;2023-03-03T04:55:18;44.30;;;13.33;;
4377;SDS011;2203;53.686;9.994;2023-03-03T04:57:44;95.23;;;14.60;;
4377;SDS011;2203;53.686;9.994;2023-03-03T05:00:10;38.17;;;13.47;;
4377;SDS011;2203;53.686;9.994;2023-03-03T05:02:38;88.47;;;13.83;;
4377;SDS011;2203;53.686;9.994;2023-03-03T05:05:04;47.57;;;13.77;;
4377;SDS011;2203;53.686;9.994;2023-03-03T05:07:30;74.93;;;13.73;;
4377;SDS011;2203;53.686;9.994;2023-03-03T05:09:56;140.80;;;14.33;;
4377;SDS011;2203;53.686;9.994;2023-03-03T05:12:21;54.17;;;14.23;;
4377;SDS011;2203;53.686;9.994;2023-03-03T05:14:47;46.13;;;13.60;;
4377;SDS011;2203;53.686;9.994;2023-03-03T05:17:12;34.93;;;12.17;;
4377;SDS011;2203;53.686;9.994;2023-03-03T05:19:38;31.13;;;11.50;;
4377;SDS011;2203;53.686;9.994;2023-03-03T05:22:04;113.47;;;12.17;;
4377;SDS011;2203;53.686;9.994;2023-03-03T05:24:29;29.53;;;12.67;;
4377;SDS011;2203;53.686;9.994;2023-03-03T05:26:55;28.70;;;11.03;;
4377;SDS011;2203;53.686;9.994;2023-03-03T05:29:20;39.37;;;12.40;;
4377;SDS011;2203;53.686;9.994;2023-03-03T05:31:45;36.40;;;13.50;;
4377;SDS011;2203;53.686;9.994;2023-03-03T05:34:11;21.80;;;11.60;;
4377;SDS011;2203;53.686;9.994;2023-03-03T05:36:36;30.13;;;11.80;;
4377;SDS011;2203;53.686;9.994;2023-03-03T05:39:02;54.23;;;11.87;;
4377;SDS011;2203;53.686;9.994;2023-03-03T05:41:27;22.40;;;12.40;;
4377;SDS011;2203;53.686;9.994;2023-03-03T05:43:52;40.67;;;12.87;;
4377;SDS011;2203;53.686;9.994;2023-03-03T05:46:18;46.53;;;13.30;;
4377;SDS011;2203;53.686;9.994;2023-03-03T05:48:44;22.20;;;12.20;;
4377;SDS011;2203;53.686;9.994;2023-03-03T05:51:09;19.77;;;11.63;;
4377;SDS011;2203;53.686;9.994;2023-03-03T05:53:35;47.53;;;12.13;;
4377;SDS011;2203;53.686;9.994;2023-03-03T05:56:00;21.13;;;11.07;;
4377;SDS011;2203;53.686;9.994;2023-03-03T05:58:26;27.67;;;10.80;;
4377;SDS011;2203;53.686;9.994;2023-03-03T06:00:51;97.07;;;11.50;;
4377;SDS011;2203;53.686;9.994;2023-03-03T06:03:17;33.97;;;10.80;;
4377;SDS011;2203;53.686;9.994;2023-03-03T06:05:42;42.63;;;9.73;;
4377;SDS011;2203;53.686;9.994;2023-03-03T06:08:07;28.37;;;10.30;;
4377;SDS011;2203;53.686;9.994;2023-03-03T06:10:33;110.80;;;11.40;;
4377;SDS011;2203;53.686;9.994;2023-03-03T06:12:59;32.47;;;10.73;;
4377;SDS011;2203;53.686;9.994;2023-03-03T06:15:25;21.80;;;11.63;;
4377;SDS011;2203;53.686;9.994;2023-03-03T06:17:50;39.93;;;11.43;;
4377;SDS011;2203;53.686;9.994;2023-03-03T06:20:16;36.03;;;11.77;;
4377;SDS011;2203;53.686;9.994;2023-03-03T06:22:41;26.97;;;11.63;;
4377;SDS011;2203;53.686;9.994;2023-03-03T06:25:07;55.40;;;11.60;;
4377;SDS011;2203;53.686;9.994;2023-03-03T06:27:33;35.73;;;11.33;;
4377;SDS011;2203;53.686;9.994;2023-03-03T06:29:58;35.07;;;11.63;;
4377;SDS011;2203;53.686;9.994;2023-03-03T06:32:23;22.63;;;10.30;;
4377;SDS011;2203;53.686;9.994;2023-03-03T06:34:49;28.17;;;10.37;;
4377;SDS011;2203;53.686;9.994;2023-03-03T06:37:14;20.67;;;9.63;;
4377;SDS011;2203;53.686;9.994;2023-03-03T06:39:40;23.87;;;9.10;;
4377;SDS011;2203;53.686;9.994;2023-03-03T06:42:05;35.07;;;9.43;;
4377;SDS011;2203;53.686;9.994;2023-03-03T06:44:31;27.53;;;9.70;;
4377;SDS011;2203;53.686;9.994;2023-03-03T06:46:56;18.50;;;8.30;;
4377;SDS011;2203;53.686;9.994;2023-03-03T06:49:22;16.07;;;7.80;;
4377;SDS011;2203;53.686;9.994;2023-03-03T06:51:48;24.23;;;8.83;;
4377;SDS011;2203;53.686;9.994;2023-03-03T06:54:14;23.33;;;9.87;;
4377;SDS011;2203;53.686;9.994;2023-03-03T06:56:41;24.43;;;9.30;;
4377;SDS011;2203;53.686;9.994;2023-03-03T06:59:25;15.73;;;8.93;;
4377;SDS011;2203;53.686;9.994;2023-03-03T07:01:51;81.83;;;10.27;;
4377;SDS011;2203;53.686;9.994;2023-03-03T07:06:53;23.60;;;10.00;;
4377;SDS011;2203;53.686;9.994;2023-03-03T07:09:21;32.07;;;8.97;;
4377;SDS011;2203;53.686;9.994;2023-03-03T07:11:48;18.40;;;10.07;;
4377;SDS011;2203;53.686;9.994;2023-03-03T07:14:15;30.53;;;10.73;;
4377;SDS011;2203;53.686;9.994;2023-03-03T07:16:42;46.80;;;10.33;;
4377;SDS011;2203;53.686;9.994;2023-03-03T07:19:23;39.93;;;9.87;;
4377;SDS011;2203;53.686;9.994;2023-03-03T07:21:56;34.07;;;10.00;;
4377;SDS011;2203;53.686;9.994;2023-03-03T07:24:25;46.27;;;9.30;;
4377;SDS011;2203;53.686;9.994;2023-03-03T07:29:30;58.53;;;9.70;;
4377;SDS011;2203;53.686;9.994;2023-03-03T07:31:57;33.43;;;8.60;;
4377;SDS011;2203;53.686;9.994;2023-03-03T07:34:35;56.43;;;9.70;;
4377;SDS011;2203;53.686;9.994;2023-03-03T07:37:09;96.87;;;10.70;;
4377;SDS011;2203;53.686;9.994;2023-03-03T07:39:42;58.73;;;9.33;;
4377;SDS011;2203;53.686;9.994;2023-03-03T07:44:46;31.67;;;9.97;;
4377;SDS011;2203;53.686;9.994;2023-03-03T07:47:18;36.50;;;10.13;;
4377;SDS011;2203;53.686;9.994;2023-03-03T07:49:52;23.00;;;9.53;;
4377;SDS011;2203;53.686;9.994;2023-03-03T07:52:22;25.67;;;9.33;;
4377;SDS011;2203;53.686;9.994;2023-03-03T07:54:48;20.57;;;8.20;;
4377;SDS011;2203;53.686;9.994;2023-03-03T07:57:35;20.37;;;9.83;;
4377;SDS011;2203;53.686;9.994;2023-03-03T08:00:36;69.23;;;9.30;;
4377;SDS011;2203;53.686;9.994;2023-03-03T08:03:07;53.40;;;9.60;;
4377;SDS011;2203;53.686;9.994;2023-03-03T08:05:36;22.60;;;9.10;;
4377;SDS011;2203;53.686;9.994;2023-03-03T08:10:35;24.03;;;9.30;;
4377;SDS011;2203;53.686;9.994;2023-03-03T08:13:49;93.47;;;8.90;;
4377;SDS011;2203;53.686;9.994;2023-03-03T08:18:34;62.90;;;9.70;;
4377;SDS011;2203;53.686;9.994;2023-03-03T08:21:06;81.63;;;10.60;;
4377;SDS011;2203;53.686;9.994;2023-03-03T08:23:36;43.07;;;9.90;;
4377;SDS011;2203;53.686;9.994;2023-03-03T08:26:01;27.53;;;9.13;;
4377;SDS011;2203;53.686;9.994;2023-03-03T08:28:27;20.90;;;9.23;;
4377;SDS011;2203;53.686;9.994;2023-03-03T08:30:52;18.20;;;9.00;;
4377;SDS011;2203;53.686;9.994;2023-03-03T08:33:18;25.70;;;10.40;;
4377;SDS011;2203;53.686;9.994;2023-03-03T08:35:43;32.80;;;8.80;;
4377;SDS011;2203;53.686;9.994;2023-03-03T08:38:10;38.47;;;8.97;;
4377;SDS011;2203;53.686;9.994;2023-03-03T08:40:36;40.70;;;9.07;;
4377;SDS011;2203;53.686;9.994;2023-03-03T08:43:02;35.70;;;9.23;;
4377;SDS011;2203;53.686;9.994;2023-03-03T08:45:28;21.10;;;8.87;;
4377;SDS011;2203;53.686;9.994;2023-03-03T08:47:53;13.30;;;7.90;;
4377;SDS011;2203;53.686;9.994;2023-03-03T08:50:19;25.73;;;8.73;;
4377;SDS011;2203;53.686;9.994;2023-03-03T08:52:45;25.50;;;8.77;;
4377;SDS011;2203;53.686;9.994;2023-03-03T08:55:10;57.20;;;9.10;;
4377;SDS011;2203;53.686;9.994;2023-03-03T08:57:36;23.20;;;8.30;;
4377;SDS011;2203;53.686;9.994;2023-03-03T09:00:01;28.30;;;7.47;;
4377;SDS011;2203;53.686;9.994;2023-03-03T09:02:26;71.10;;;8.53;;
4377;SDS011;2203;53.686;9.994;2023-03-03T09:04:52;17.40;;;7.50;;
4377;SDS011;2203;53.686;9.994;2023-03-03T09:07:17;23.10;;;8.10;;
4377;SDS011;2203;53.686;9.994;2023-03-03T09:09:43;29.63;;;7.20;;
4377;SDS011;2203;53.686;9.994;2023-03-03T09:12:32;34.37;;;7.40;;
4377;SDS011;2203;53.686;9.994;2023-03-03T09:15:35;41.03;;;6.63;;
4377;SDS011;2203;53.686;9.994;2023-03-03T09:17:58;35.57;;;7.10;;
4377;SDS011;2203;53.686;9.994;2023-03-03T09:26:05;12.37;;;5.77;;
4377;SDS011;2203;53.686;9.994;2023-03-03T09:28:38;17.63;;;6.00;;
4377;SDS011;2203;53.686;9.994;2023-03-03T09:31:05;23.33;;;5.80;;
4377;SDS011;2203;53.686;9.994;2023-03-03T09:33:46;20.23;;;6.30;;
4377;SDS011;2203;53.686;9.994;2023-03-03T09:39:00;9.17;;;5.57;;
4377;SDS011;2203;53.686;9.994;2023-03-03T09:44:43;25.43;;;7.00;;
4377;SDS011;2203;53.686;9.994;2023-03-03T09:47:32;24.53;;;6.70;;
4377;SDS011;2203;53.686;9.994;2023-03-03T10:03:02;21.63;;;6.97;;
4377;SDS011;2203;53.686;9.994;2023-03-03T10:10:43;32.00;;;6.13;;
4377;SDS011;2203;53.686;9.994;2023-03-03T10:15:53;11.47;;;5.80;;
4377;SDS011;2203;53.686;9.994;2023-03-03T10:18:28;26.83;;;6.90;;
4377;SDS011;2203;53.686;9.994;2023-03-03T10:23:51;18.13;;;7.33;;
4377;SDS011;2203;53.686;9.994;2023-03-03T10:29:18;11.77;;;6.93;;
4377;SDS011;2203;53.686;9.994;2023-03-03T10:36:54;13.33;;;7.40;;
4377;SDS011;2203;53.686;9.994;2023-03-03T10:39:31;20.53;;;7.63;;
4377;SDS011;2203;53.686;9.994;2023-03-03T10:45:16;11.77;;;6.63;;
4377;SDS011;2203;53.686;9.994;2023-03-03T10:50:53;12.53;;;7.53;;
4377;SDS011;2203;53.686;9.994;2023-03-03T10:53:29;16.70;;;8.77;;
4377;SDS011;2203;53.686;9.994;2023-03-03T11:14:24;19.60;;;10.70;;
4377;SDS011;2203;53.686;9.994;2023-03-03T11:17:03;18.43;;;11.37;;
4377;SDS011;2203;53.686;9.994;2023-03-03T11:33:03;23.70;;;11.47;;
4377;SDS011;2203;53.686;9.994;2023-03-03T11:40:54;18.47;;;10.57;;
4377;SDS011;2203;53.686;9.994;2023-03-03T11:43:33;22.87;;;10.80;;
4377;SDS011;2203;53.686;9.994;2023-03-03T11:46:23;19.57;;;10.57;;
4377;SDS011;2203;53.686;9.994;2023-03-03T11:51:59;24.70;;;10.83;;
4377;SDS011;2203;53.686;9.994;2023-03-03T11:54:29;24.43;;;10.33;;
4377;SDS011;2203;53.686;9.994;2023-03-03T11:57:07;27.90;;;11.50;;
4377;SDS011;2203;53.686;9.994;2023-03-03T11:59:41;20.07;;;9.90;;
4377;SDS011;2203;53.686;9.994;2023-03-03T12:04:47;26.23;;;10.07;;
4377;SDS011;2203;53.686;9.994;2023-03-03T12:07:36;19.73;;;10.07;;
4377;SDS011;2203;53.686;9.994;2023-03-03T12:13:02;31.03;;;10.07;;
4377;SDS011;2203;53.686;9.994;2023-03-03T12:15:48;31.60;;;10.40;;
4377;SDS011;2203;53.686;9.994;2023-03-03T12:23:51;37.73;;;13.63;;
4377;SDS011;2203;53.686;9.994;2023-03-03T12:26:31;22.70;;;9.70;;
4377;SDS011;2203;53.686;9.994;2023-03-03T12:29:27;27.97;;;9.53;;
4377;SDS011;2203;53.686;9.994;2023-03-03T12:40:23;20.00;;;9.73;;
4377;SDS011;2203;53.686;9.994;2023-03-03T12:47:58;30.90;;;9.57;;
4377;SDS011;2203;53.686;9.994;2023-03-03T12:53:17;19.73;;;8.70;;
4377;SDS011;2203;53.686;9.994;2023-03-03T12:56:07;22.87;;;8.30;;
4377;SDS011;2203;53.686;9.994;2023-03-03T13:01:21;17.93;;;6.57;;
4377;SDS011;2203;53.686;9.994;2023-03-03T13:06:35;11.33;;;5.03;;
4377;SDS011;2203;53.686;9.994;2023-03-03T13:17:26;5.37;;;3.03;;
4377;SDS011;2203;53.686;9.994;2023-03-03T13:19:56;14.70;;;3.57;;
4377;SDS011;2203;53.686;9.994;2023-03-03T13:22:30;12.97;;;3.27;;
4377;SDS011;2203;53.686;9.994;2023-03-03T13:27:59;7.00;;;3.00;;
4377;SDS011;2203;53.686;9.994;2023-03-03T13:30:29;8.67;;;2.90;;
4377;SDS011;2203;53.686;9.994;2023-03-03T13:33:03;13.60;;;3.00;;
4377;SDS011;2203;53.686;9.994;2023-03-03T13:35:41;21.03;;;3.20;;
4377;SDS011;2203;53.686;9.994;2023-03-03T13:38:11;5.83;;;2.50;;
4377;SDS011;2203;53.686;9.994;2023-03-03T13:40:40;7.70;;;2.30;;
4377;SDS011;2203;53.686;9.994;2023-03-03T13:43:18;11.23;;;1.93;;
4377;SDS011;2203;53.686;9.994;2023-03-03T13:51:39;9.73;;;1.70;;
4377;SDS011;2203;53.686;9.994;2023-03-03T14:02:04;10.23;;;1.40;;
4377;SDS011;2203;53.686;9.994;2023-03-03T14:04:56;6.97;;;1.57;;
4377;SDS011;2203;53.686;9.994;2023-03-03T14:07:35;2.77;;;1.10;;
4377;SDS011;2203;53.686;9.994;2023-03-03T14:10:10;9.37;;;1.50;;
4377;SDS011;2203;53.686;9.994;2023-03-03T14:15:52;8.13;;;1.10;;
4377;SDS011;2203;53.686;9.994;2023-03-03T14:18:56;17.33;;;2.13;;
4377;SDS011;2203;53.686;9.994;2023-03-03T14:24:18;4.73;;;1.80;;
4377;SDS011;2203;53.686;9.994;2023-03-03T14:26:52;11.07;;;1.87;;
4377;SDS011;2203;53.686;9.994;2023-03-03T14:31:54;14.73;;;2.00;;
4377;SDS011;2203;53.686;9.994;2023-03-03T14:34:29;3.97;;;1.37;;
4377;SDS011;2203;53.686;9.994;2023-03-03T14:37:25;26.10;;;1.40;;
4377;SDS011;2203;53.686;9.994;2023-03-03T14:42:47;8.53;;;1.60;;
4377;SDS011;2203;53.686;9.994;2023-03-03T14:47:46;11.73;;;1.77;;
4377;SDS011;2203;53.686;9.994;2023-03-03T14:50:27;12.50;;;1.90;;
4377;SDS011;2203;53.686;9.994;2023-03-03T14:53:11;4.87;;;1.30;;
4377;SDS011;2203;53.686;9.994;2023-03-03T14:55:39;14.37;;;2.20;;
4377;SDS011;2203;53.686;9.994;2023-03-03T15:01:08;7.10;;;2.20;;
4377;SDS011;2203;53.686;9.994;2023-03-03T15:06:28;9.67;;;2.13;;
4377;SDS011;2203;53.686;9.994;2023-03-03T15:11:59;11.37;;;4.70;;
4377;SDS011;2203;53.686;9.994;2023-03-03T15:14:29;13.37;;;2.40;;
4377;SDS011;2203;53.686;9.994;2023-03-03T15:17:18;9.23;;;1.80;;
4377;SDS011;2203;53.686;9.994;2023-03-03T15:19:49;25.13;;;2.93;;
4377;SDS011;2203;53.686;9.994;2023-03-03T15:22:23;9.80;;;2.50;;
4377;SDS011;2203;53.686;9.994;2023-03-03T15:28:16;18.00;;;2.80;;
4377;SDS011;2203;53.686;9.994;2023-03-03T15:36:16;21.47;;;1.87;;
4377;SDS011;2203;53.686;9.994;2023-03-03T15:42:10;20.90;;;2.77;;
4377;SDS011;2203;53.686;9.994;2023-03-03T15:50:20;25.70;;;2.83;;
4377;SDS011;2203;53.686;9.994;2023-03-03T15:52:55;22.00;;;2.80;;
4377;SDS011;2203;53.686;9.994;2023-03-03T16:04:05;18.97;;;2.83;;
4377;SDS011;2203;53.686;9.994;2023-03-03T16:12:30;32.53;;;3.40;;
4377;SDS011;2203;53.686;9.994;2023-03-03T16:21:09;21.70;;;3.43;;
4377;SDS011;2203;53.686;9.994;2023-03-03T16:23:53;13.47;;;3.13;;
4377;SDS011;2203;53.686;9.994;2023-03-03T16:29:30;39.57;;;4.00;;
4377;SDS011;2203;53.686;9.994;2023-03-03T16:32:23;35.47;;;3.90;;
4377;SDS011;2203;53.686;9.994;2023-03-03T16:37:50;25.27;;;3.47;;
4377;SDS011;2203;53.686;9.994;2023-03-03T16:40:25;27.33;;;3.73;;
4377;SDS011;2203;53.686;9.994;2023-03-03T16:54:25;28.53;;;3.63;;
4377;SDS011;2203;53.686;9.994;2023-03-03T16:56:52;36.07;;;4.30;;
4377;SDS011;2203;53.686;9.994;2023-03-03T17:05:19;32.10;;;4.20;;
4377;SDS011;2203;53.686;9.994;2023-03-03T17:08:15;30.97;;;3.80;;
4377;SDS011;2203;53.686;9.994;2023-03-03T17:10:56;39.93;;;4.20;;
4377;SDS011;2203;53.686;9.994;2023-03-03T17:13:37;35.17;;;6.53;;
4377;SDS011;2203;53.686;9.994;2023-03-03T17:18:59;27.83;;;4.60;;
4377;SDS011;2203;53.686;9.994;2023-03-03T17:21:46;26.67;;;3.40;;
4377;SDS011;2203;53.686;9.994;2023-03-03T17:24:20;34.57;;;4.10;;
4377;SDS011;2203;53.686;9.994;2023-03-03T17:29:45;21.43;;;4.10;;
4377;SDS011;2203;53.686;9.994;2023-03-03T17:32:21;27.83;;;3.80;;
4377;SDS011;2203;53.686;9.994;2023-03-03T17:35:07;35.93;;;4.00;;
4377;SDS011;2203;53.686;9.994;2023-03-03T17:45:35;40.27;;;3.47;;
4377;SDS011;2203;53.686;9.994;2023-03-03T17:56:02;32.23;;;5.13;;
4377;SDS011;2203;53.686;9.994;2023-03-03T18:04:38;30.00;;;3.93;;
4377;SDS011;2203;53.686;9.994;2023-03-03T18:12:37;27.90;;;4.63;;
4377;SDS011;2203;53.686;9.994;2023-03-03T18:23:34;34.40;;;4.07;;
4377;SDS011;2203;53.686;9.994;2023-03-03T18:26:48;33.77;;;5.00;;
4377;SDS011;2203;53.686;9.994;2023-03-03T18:32:17;36.57;;;3.97;;
4377;SDS011;2203;53.686;9.994;2023-03-03T18:34:42;38.23;;;4.50;;
4377;SDS011;2203;53.686;9.994;2023-03-03T18:42:36;23.57;;;4.70;;
4377;SDS011;2203;53.686;9.994;2023-03-03T18:45:10;34.23;;;4.90;;
4377;SDS011;2203;53.686;9.994;2023-03-03T18:48:11;42.63;;;5.70;;
4377;SDS011;2203;53.686;9.994;2023-03-03T18:50:38;43.10;;;4.40;;
4377;SDS011;2203;53.686;9.994;2023-03-03T18:53:15;54.27;;;5.30;;
4377;SDS011;2203;53.686;9.994;2023-03-03T18:55:48;47.63;;;6.50;;
4377;SDS011;2203;53.686;9.994;2023-03-03T19:00:41;39.50;;;5.73;;
4377;SDS011;2203;53.686;9.994;2023-03-03T19:03:18;27.97;;;4.30;;
4377;SDS011;2203;53.686;9.994;2023-03-03T19:05:48;24.87;;;4.37;;
4377;SDS011;2203;53.686;9.994;2023-03-03T19:08:23;34.73;;;4.97;;
4377;SDS011;2203;53.686;9.994;2023-03-03T19:10:53;43.23;;;4.63;;
4377;SDS011;2203;53.686;9.994;2023-03-03T19:16:02;34.90;;;4.93;;
4377;SDS011;2203;53.686;9.994;2023-03-03T19:21:24;41.63;;;4.83;;
4377;SDS011;2203;53.686;9.994;2023-03-03T19:23:58;43.53;;;5.67;;
4377;SDS011;2203;53.686;9.994;2023-03-03T19:26:27;33.40;;;4.17;;
4377;SDS011;2203;53.686;9.994;2023-03-03T19:29:20;30.67;;;4.03;;
4377;SDS011;2203;53.686;9.994;2023-03-03T19:34:37;49.53;;;6.00;;
4377;SDS011;2203;53.686;9.994;2023-03-03T19:37:21;42.80;;;4.90;;
4377;SDS011;2203;53.686;9.994;2023-03-03T19:40:00;45.07;;;4.90;;
4377;SDS011;2203;53.686;9.994;2023-03-03T20:06:37;62.07;;;4.80;;
4377;SDS011;2203;53.686;9.994;2023-03-03T20:15:46;44.93;;;5.50;;
4377;SDS011;2203;53.686;9.994;2023-03-03T20:26:17;38.13;;;5.27;;
4377;SDS011;2203;53.686;9.994;2023-03-03T20:36:55;37.03;;;5.30;;
4377;SDS011;2203;53.686;9.994;2023-03-03T20:47:39;49.17;;;5.63;;
4377;SDS011;2203;53.686;9.994;2023-03-03T20:50:26;43.47;;;5.53;;
4377;SDS011;2203;53.686;9.994;2023-03-03T21:03:37;38.07;;;4.73;;
4377;SDS011;2203;53.686;9.994;2023-03-03T21:06:16;34.73;;;4.53;;
4377;SDS011;2203;53.686;9.994;2023-03-03T21:08:46;28.30;;;4.43;;
4377;SDS011;2203;53.686;9.994;2023-03-03T21:13:57;39.77;;;4.20;;
4377;SDS011;2203;53.686;9.994;2023-03-03T21:18:58;39.97;;;5.37;;
4377;SDS011;2203;53.686;9.994;2023-03-03T21:21:27;59.83;;;4.60;;
4377;SDS011;2203;53.686;9.994;2023-03-03T21:23:58;24.20;;;4.10;;
4377;SDS011;2203;53.686;9.994;2023-03-03T21:26:43;32.07;;;4.27;;
4377;SDS011;2203;53.686;9.994;2023-03-03T21:29:28;51.03;;;5.10;;
4377;SDS011;2203;53.686;9.994;2023-03-03T21:34:33;33.57;;;4.60;;
4377;SDS011;2203;53.686;9.994;2023-03-03T21:37:00;40.97;;;4.83;;
4377;SDS011;2203;53.686;9.994;2023-03-03T21:39:31;39.60;;;4.67;;
4377;SDS011;2203;53.686;9.994;2023-03-03T21:42:10;34.07;;;4.10;;
4377;SDS011;2203;53.686;9.994;2023-03-03T21:47:20;43.10;;;5.37;;
4377;SDS011;2203;53.686;9.994;2023-03-03T21:49:47;33.73;;;4.70;;
4377;SDS011;2203;53.686;9.994;2023-03-03T21:52:14;46.43;;;4.67;;